createdAt,value
2022-12-29T00:00:06.529Z,2.77
2022-12-29T00:02:33.322Z,2.91
2022-12-29T00:05:00.113Z,2.98
2022-12-29T00:07:26.895Z,3.06
2022-12-29T00:09:53.603Z,3.11
2022-12-29T00:12:20.258Z,3.05
2022-12-29T00:15:05.167Z,2.99
2022-12-29T00:17:31.777Z,2.98
2022-12-29T00:20:16.678Z,2.90
2022-12-29T00:23:03.373Z,2.88
2022-12-29T00:25:48.327Z,2.97
2022-12-29T00:28:33.313Z,3.04
2022-12-29T00:31:19.521Z,3.35
2022-12-29T00:34:04.560Z,3.51
2022-12-29T00:36:31.186Z,3.37
2022-12-29T00:39:20.401Z,3.43
2022-12-29T00:42:07.562Z,3.42
2022-12-29T00:44:34.514Z,3.37
2022-12-29T00:47:04.179Z,3.52
2022-12-29T00:49:31.627Z,3.71
2022-12-29T00:52:07.392Z,3.96
2022-12-29T00:54:36.129Z,4.23
2022-12-29T00:57:03.843Z,4.43
2022-12-29T00:59:30.590Z,4.60
2022-12-29T01:01:58.310Z,4.74
2022-12-29T01:04:26.873Z,4.92
2022-12-29T01:06:53.941Z,5.09
2022-12-29T01:09:39.919Z,5.08
2022-12-29T01:12:08.093Z,5.15
2022-12-29T01:14:35.013Z,5.22
2022-12-29T01:17:01.724Z,5.34
2022-12-29T01:19:28.616Z,5.32
2022-12-29T01:21:55.296Z,5.46
2022-12-29T01:24:22.219Z,5.59
2022-12-29T01:26:49.602Z,5.49
2022-12-29T01:29:16.452Z,5.63
2022-12-29T01:31:44.001Z,5.75
2022-12-29T01:34:10.773Z,5.89
2022-12-29T01:36:37.391Z,5.87
2022-12-29T01:39:04.205Z,5.77
2022-12-29T01:41:31.212Z,5.99
2022-12-29T01:44:01.978Z,6.01
2022-12-29T01:46:33.613Z,6.11
2022-12-29T01:49:14.782Z,6.06
2022-12-29T01:52:05.524Z,6.10
2022-12-29T01:54:44.667Z,6.19
2022-12-29T01:57:15.151Z,6.18
2022-12-29T01:59:49.326Z,6.20
2022-12-29T02:02:16.599Z,6.15
2022-12-29T02:04:45.321Z,6.33
2022-12-29T02:07:19.680Z,6.38
2022-12-29T02:09:50.835Z,6.33
2022-12-29T02:12:22.337Z,6.33
2022-12-29T02:14:51.644Z,6.34
2022-12-29T02:17:35.183Z,6.31
2022-12-29T02:20:28.592Z,6.38
2022-12-29T02:23:23.153Z,6.36
2022-12-29T02:26:11.283Z,6.43
2022-12-29T02:29:16.129Z,6.50
2022-12-29T02:31:56.531Z,6.31
2022-12-29T02:34:32.220Z,6.27
2022-12-29T02:37:19.147Z,6.28
2022-12-29T02:40:01.764Z,6.11
2022-12-29T02:42:44.648Z,5.93
2022-12-29T02:45:27.442Z,5.86
2022-12-29T02:48:19.134Z,5.74
2022-12-29T02:50:58.603Z,5.79
2022-12-29T02:53:50.333Z,5.90
2022-12-29T02:56:17.031Z,6.03
2022-12-29T02:58:45.130Z,5.90
2022-12-29T03:01:20.915Z,6.13
2022-12-29T03:03:59.824Z,6.18
2022-12-29T03:06:32.635Z,6.31
2022-12-29T03:09:35.925Z,6.29
2022-12-29T03:12:20.171Z,6.17
2022-12-29T03:15:11.470Z,6.18
2022-12-29T03:17:40.960Z,6.31
2022-12-29T03:20:11.340Z,6.27
2022-12-29T03:22:43.090Z,6.30
2022-12-29T03:25:41.583Z,6.48
2022-12-29T03:28:13.780Z,6.68
2022-12-29T03:30:42.171Z,6.65
2022-12-29T03:33:12.687Z,6.80
2022-12-29T03:35:43.475Z,6.86
2022-12-29T03:38:40.984Z,6.72
2022-12-29T03:41:11.888Z,6.64
2022-12-29T03:43:38.828Z,6.58
2022-12-29T03:46:05.528Z,6.67
2022-12-29T03:48:33.870Z,6.60
2022-12-29T03:51:01.269Z,6.52
2022-12-29T03:53:28.010Z,6.44
2022-12-29T03:55:54.597Z,6.34
2022-12-29T03:58:21.516Z,6.33
2022-12-29T04:00:48.242Z,6.20
2022-12-29T04:03:14.948Z,6.08
2022-12-29T04:05:41.679Z,5.97
2022-12-29T04:08:08.419Z,5.86
2022-12-29T04:10:35.276Z,5.83
2022-12-29T04:13:01.917Z,5.88
2022-12-29T04:15:28.599Z,5.86
2022-12-29T04:17:55.289Z,5.99
2022-12-29T04:20:40.556Z,6.10
2022-12-29T04:23:07.617Z,5.90
2022-12-29T04:25:34.985Z,5.79
2022-12-29T04:28:01.875Z,5.72
2022-12-29T04:30:28.614Z,5.68
2022-12-29T04:32:55.642Z,5.85
2022-12-29T04:35:22.356Z,5.98
2022-12-29T04:37:49.061Z,5.83
2022-12-29T04:40:15.712Z,5.84
2022-12-29T04:42:42.327Z,5.78
2022-12-29T04:45:09.467Z,5.84
2022-12-29T04:47:36.110Z,5.90
2022-12-29T04:50:02.827Z,5.92
2022-12-29T04:52:29.487Z,5.95
2022-12-29T04:54:56.187Z,5.88
2022-12-29T04:57:22.800Z,5.78
2022-12-29T04:59:49.384Z,5.63
2022-12-29T05:02:16.918Z,5.43
2022-12-29T05:04:45.454Z,5.33
2022-12-29T05:07:12.121Z,5.25
2022-12-29T05:09:38.817Z,5.16
2022-12-29T05:12:05.756Z,5.11
2022-12-29T05:14:32.393Z,5.11
2022-12-29T05:17:00.013Z,5.16
2022-12-29T05:19:26.679Z,5.18
2022-12-29T05:21:53.419Z,5.57
2022-12-29T05:24:20.157Z,5.92
2022-12-29T05:26:46.797Z,6.18
2022-12-29T05:29:13.460Z,6.40
2022-12-29T05:31:40.281Z,6.37
2022-12-29T05:34:06.964Z,6.23
2022-12-29T05:36:37.643Z,6.16
2022-12-29T05:39:04.931Z,6.19
2022-12-29T05:41:31.544Z,6.23
2022-12-29T05:43:58.269Z,6.12
2022-12-29T05:46:24.962Z,6.20
2022-12-29T05:48:51.683Z,6.15
2022-12-29T05:51:18.392Z,6.10
2022-12-29T05:53:45.017Z,6.03
2022-12-29T05:56:11.713Z,5.99
2022-12-29T05:58:38.357Z,6.00
2022-12-29T06:01:05.188Z,6.09
2022-12-29T06:03:32.035Z,6.24
2022-12-29T06:05:58.784Z,6.39
2022-12-29T06:08:25.388Z,6.36
2022-12-29T06:10:52.104Z,6.17
2022-12-29T06:13:18.720Z,6.19
2022-12-29T06:15:45.374Z,6.25
2022-12-29T06:20:46.716Z,6.32
2022-12-29T06:23:14.200Z,6.38
2022-12-29T06:25:40.925Z,6.34
2022-12-29T06:28:07.660Z,6.50
2022-12-29T06:30:34.618Z,6.32
2022-12-29T06:33:01.255Z,6.25
2022-12-29T06:35:27.959Z,6.42
2022-12-29T06:37:54.665Z,6.35
2022-12-29T06:40:22.681Z,6.27
2022-12-29T06:42:49.469Z,6.24
2022-12-29T06:45:16.213Z,6.18
2022-12-29T06:47:44.063Z,6.10
2022-12-29T06:50:10.699Z,6.10
2022-12-29T06:52:37.353Z,6.07
2022-12-29T06:55:04.442Z,5.99
2022-12-29T06:57:31.198Z,5.92
2022-12-29T06:59:57.988Z,5.85
2022-12-29T07:02:26.419Z,5.89
2022-12-29T07:04:53.547Z,5.86
2022-12-29T07:07:21.635Z,5.83
2022-12-29T07:09:48.431Z,5.84
2022-12-29T07:12:15.361Z,5.79
2022-12-29T07:14:43.562Z,5.79
2022-12-29T07:17:10.734Z,5.96
2022-12-29T07:19:37.533Z,5.92
2022-12-29T07:22:04.140Z,5.84
2022-12-29T07:24:30.863Z,5.83
2022-12-29T07:26:57.796Z,5.85
2022-12-29T07:29:25.282Z,5.76
2022-12-29T07:31:51.994Z,5.67
2022-12-29T07:34:18.676Z,5.58
2022-12-29T07:36:45.271Z,5.45
2022-12-29T07:39:12.651Z,5.45
2022-12-29T07:41:39.374Z,5.39
2022-12-29T07:44:06.051Z,5.42
2022-12-29T07:46:54.480Z,5.42
2022-12-29T07:49:19.311Z,5.37
2022-12-29T07:51:45.950Z,5.38
2022-12-29T07:54:13.602Z,5.43
2022-12-29T07:56:40.289Z,5.39
2022-12-29T07:59:06.952Z,5.40
2022-12-29T08:01:33.772Z,5.43
2022-12-29T08:04:00.586Z,5.55
2022-12-29T08:06:27.372Z,5.68
2022-12-29T08:08:54.059Z,5.80
2022-12-29T08:11:21.030Z,5.99
2022-12-29T08:13:47.792Z,6.08
2022-12-29T08:16:14.438Z,6.26
2022-12-29T08:18:41.303Z,6.32
2022-12-29T08:21:08.047Z,6.35
2022-12-29T08:23:34.771Z,6.39
2022-12-29T08:26:03.469Z,6.46
2022-12-29T08:28:30.804Z,6.54
2022-12-29T08:31:02.537Z,6.53
2022-12-29T08:33:30.018Z,6.69
2022-12-29T08:36:02.037Z,6.70
2022-12-29T08:38:30.036Z,6.71
2022-12-29T08:41:01.884Z,6.74
2022-12-29T08:43:29.166Z,6.69
2022-12-29T08:45:55.866Z,6.66
2022-12-29T08:48:23.222Z,6.64
2022-12-29T08:50:51.450Z,6.59
2022-12-29T08:53:19.573Z,6.67
2022-12-29T08:56:00.810Z,6.76
2022-12-29T08:58:31.692Z,6.94
2022-12-29T09:00:58.801Z,7.08
2022-12-29T09:03:55.147Z,7.16
2022-12-29T09:06:13.361Z,7.26
2022-12-29T09:08:40.054Z,7.30
2022-12-29T09:11:13.433Z,7.50
2022-12-29T09:13:40.415Z,7.63
2022-12-29T09:16:07.855Z,7.70
2022-12-29T09:18:34.698Z,7.68
2022-12-29T09:21:03.868Z,7.66
2022-12-29T09:23:30.692Z,7.67
2022-12-29T09:25:57.616Z,7.64
2022-12-29T09:28:25.066Z,7.66
2022-12-29T09:30:52.253Z,7.62
2022-12-29T09:33:19.225Z,7.65
2022-12-29T09:35:51.063Z,7.65
2022-12-29T09:38:18.117Z,7.74
2022-12-29T09:40:50.207Z,7.96
2022-12-29T09:43:41.823Z,8.11
2022-12-29T09:46:27.610Z,8.15
2022-12-29T09:49:03.308Z,8.42
2022-12-29T09:51:30.118Z,8.76
2022-12-29T09:54:01.327Z,8.87
2022-12-29T09:56:28.859Z,8.92
2022-12-29T09:59:02.007Z,8.77
2022-12-29T10:01:38.106Z,9.15
2022-12-29T10:04:06.229Z,10.89
2022-12-29T10:07:29.039Z,11.40
2022-12-29T10:10:03.645Z,10.48
2022-12-29T10:12:39.550Z,9.66
2022-12-29T10:15:27.103Z,9.23
2022-12-29T10:18:31.618Z,9.04
2022-12-29T10:21:09.103Z,8.95
2022-12-29T10:23:48.746Z,9.08
2022-12-29T10:26:19.343Z,9.08
2022-12-29T10:28:51.504Z,8.97
2022-12-29T10:31:24.031Z,9.02
2022-12-29T10:34:04.619Z,9.07
2022-12-29T10:36:42.798Z,9.05
2022-12-29T10:39:15.474Z,8.98
2022-12-29T10:42:04.612Z,8.98
2022-12-29T10:44:32.742Z,8.93
2022-12-29T10:47:03.492Z,8.89
2022-12-29T10:49:33.035Z,8.97
2022-12-29T10:52:03.327Z,8.79
2022-12-29T10:54:52.504Z,8.66
2022-12-29T10:57:28.994Z,8.71
2022-12-29T10:59:55.966Z,8.58
2022-12-29T11:02:28.634Z,8.52
2022-12-29T11:05:20.694Z,8.59
2022-12-29T11:07:55.285Z,8.63
2022-12-29T11:10:40.724Z,8.66
2022-12-29T11:13:19.153Z,8.71
2022-12-29T11:15:45.772Z,8.82
2022-12-29T11:18:39.233Z,8.92
2022-12-29T11:21:24.757Z,9.03
2022-12-29T11:24:06.384Z,8.91
2022-12-29T11:26:35.018Z,8.85
2022-12-29T11:29:24.376Z,8.88
2022-12-29T11:31:55.197Z,8.76
2022-12-29T11:34:26.844Z,8.99
2022-12-29T11:37:03.223Z,9.00
2022-12-29T11:39:46.629Z,9.00
2022-12-29T11:42:17.443Z,8.99
2022-12-29T11:44:49.823Z,9.06
2022-12-29T11:47:30.597Z,9.09
2022-12-29T11:50:04.129Z,9.02
2022-12-29T11:52:36.100Z,9.03
2022-12-29T11:55:05.875Z,9.14
2022-12-29T11:57:35.962Z,8.98
2022-12-29T12:00:15.537Z,8.93
2022-12-29T12:03:06.977Z,8.90
2022-12-29T12:05:45.926Z,8.86
2022-12-29T12:08:38.485Z,8.84
2022-12-29T12:11:16.371Z,8.83
2022-12-29T12:13:58.083Z,8.88
2022-12-29T12:16:42.488Z,8.84
2022-12-29T12:19:33.957Z,8.83
2022-12-29T12:22:11.754Z,8.71
2022-12-29T12:24:56.604Z,8.85
2022-12-29T12:27:30.145Z,8.82
2022-12-29T12:29:59.809Z,8.78
2022-12-29T12:32:35.552Z,8.78
2022-12-29T12:35:02.800Z,8.71
2022-12-29T12:37:50.815Z,8.84
2022-12-29T12:40:59.077Z,8.80
2022-12-29T12:43:38.337Z,8.88
2022-12-29T12:46:08.433Z,8.85
2022-12-29T12:48:50.183Z,8.91
2022-12-29T12:51:19.490Z,8.91
2022-12-29T12:54:17.208Z,8.87
2022-12-29T12:56:52.956Z,8.94
2022-12-29T12:59:32.216Z,9.03
2022-12-29T13:02:12.369Z,9.16
2022-12-29T13:05:15.762Z,9.22
2022-12-29T13:08:27.430Z,9.15
2022-12-29T13:11:03.371Z,9.28
2022-12-29T13:13:36.034Z,9.34
2022-12-29T13:16:21.674Z,9.32
2022-12-29T13:19:04.852Z,9.46
2022-12-29T13:21:38.359Z,9.31
2022-12-29T13:24:33.659Z,9.34
2022-12-29T13:27:21.889Z,9.48
2022-12-29T13:30:22.382Z,9.49
2022-12-29T13:32:48.947Z,9.36
2022-12-29T13:35:32.077Z,9.41
2022-12-29T13:38:10.213Z,9.40
2022-12-29T13:40:47.636Z,9.37
2022-12-29T13:43:16.857Z,9.40
2022-12-29T13:45:46.195Z,9.38
2022-12-29T13:48:12.731Z,9.37
2022-12-29T13:50:41.241Z,9.39
2022-12-29T13:53:23.364Z,9.45
2022-12-29T13:55:59.458Z,9.57
2022-12-29T13:58:33.717Z,9.55
2022-12-29T14:01:23.092Z,9.57
2022-12-29T14:03:53.387Z,9.47
2022-12-29T14:06:29.297Z,9.42
2022-12-29T14:08:59.675Z,9.32
2022-12-29T14:11:38.679Z,9.18
2022-12-29T14:14:15.185Z,9.18
2022-12-29T14:16:44.052Z,9.15
2022-12-29T14:19:13.643Z,9.14
2022-12-29T14:21:41.297Z,9.05
2022-12-29T14:24:29.679Z,9.02
2022-12-29T14:26:56.384Z,9.00
2022-12-29T14:29:25.688Z,8.96
2022-12-29T14:31:53.754Z,8.85
2022-12-29T14:34:23.163Z,8.89
2022-12-29T14:36:52.853Z,8.86
2022-12-29T14:39:46.036Z,8.80
2022-12-29T14:42:18.487Z,8.74
2022-12-29T14:44:52.760Z,8.72
2022-12-29T14:47:26.392Z,8.70
2022-12-29T14:49:53.589Z,8.65
2022-12-29T14:52:25.854Z,8.67
2022-12-29T14:54:55.576Z,8.68
2022-12-29T14:57:43.984Z,8.59
2022-12-29T15:00:41.428Z,8.60
2022-12-29T15:03:18.267Z,8.64
2022-12-29T15:05:49.614Z,8.58
2022-12-29T15:08:23.327Z,8.56
2022-12-29T15:11:01.694Z,8.46
2022-12-29T15:13:41.036Z,8.41
2022-12-29T15:16:24.199Z,8.35
2022-12-29T15:18:51.063Z,8.32
2022-12-29T15:21:18.850Z,8.32
2022-12-29T15:23:46.449Z,8.28
2022-12-29T15:26:21.944Z,8.28
2022-12-29T15:28:49.499Z,8.21
2022-12-29T15:31:30.013Z,8.15
2022-12-29T15:34:12.520Z,8.03
2022-12-29T15:36:41.222Z,7.97
2022-12-29T15:39:31.697Z,7.98
2022-12-29T15:42:06.996Z,7.99
2022-12-29T15:44:39.287Z,8.05
2022-12-29T15:47:12.680Z,8.07
2022-12-29T15:49:39.854Z,8.10
2022-12-29T15:52:10.355Z,8.09
2022-12-29T15:54:38.756Z,8.11
2022-12-29T15:57:21.656Z,8.06
2022-12-29T15:59:49.136Z,8.05
2022-12-29T16:02:16.085Z,8.09
2022-12-29T16:05:09.200Z,8.09
2022-12-29T16:07:41.244Z,8.16
2022-12-29T16:10:41.206Z,7.98
2022-12-29T16:13:23.707Z,7.88
2022-12-29T16:15:55.862Z,7.81
2022-12-29T16:18:29.680Z,7.71
2022-12-29T16:20:57.510Z,7.65
2022-12-29T16:23:27.881Z,7.58
2022-12-29T16:25:58.458Z,7.53
2022-12-29T16:28:33.077Z,7.49
2022-12-29T16:31:04.626Z,7.43
2022-12-29T16:33:45.335Z,7.37
2022-12-29T16:36:30.826Z,7.35
2022-12-29T16:39:25.009Z,7.38
2022-12-29T16:41:52.209Z,7.39
2022-12-29T16:44:21.215Z,7.44
2022-12-29T16:47:12.287Z,7.45
2022-12-29T16:49:43.523Z,7.46
2022-12-29T16:52:18.846Z,7.52
2022-12-29T16:54:52.828Z,7.55
2022-12-29T16:57:37.614Z,7.54
2022-12-29T17:00:19.035Z,7.57
2022-12-29T17:02:47.043Z,7.53
2022-12-29T17:05:15.301Z,7.55
2022-12-29T17:07:42.007Z,7.56
2022-12-29T17:10:09.089Z,7.56
2022-12-29T17:12:37.333Z,7.62
2022-12-29T17:15:13.908Z,7.62
2022-12-29T17:17:46.681Z,7.60
2022-12-29T17:20:19.432Z,7.54
2022-12-29T17:22:46.766Z,7.50
2022-12-29T17:25:15.474Z,7.55
2022-12-29T17:27:49.118Z,7.59
2022-12-29T17:30:21.982Z,7.60
2022-12-29T17:32:59.731Z,7.53
2022-12-29T17:35:27.015Z,7.53
2022-12-29T17:37:54.009Z,7.46
2022-12-29T17:40:27.984Z,7.49
2022-12-29T17:42:57.044Z,7.45
2022-12-29T17:45:29.478Z,7.35
2022-12-29T17:47:57.235Z,7.29
2022-12-29T17:50:26.311Z,7.26
2022-12-29T17:53:00.819Z,7.20
2022-12-29T17:55:36.702Z,7.24
2022-12-29T17:58:17.137Z,7.27
2022-12-29T18:00:44.175Z,7.23
2022-12-29T18:03:26.817Z,7.21
2022-12-29T18:05:53.920Z,7.18
2022-12-29T18:08:20.990Z,7.15
2022-12-29T18:10:48.221Z,7.18
2022-12-29T18:13:31.839Z,7.12
2022-12-29T18:16:02.685Z,7.13
2022-12-29T18:18:29.390Z,7.11
2022-12-29T18:21:00.044Z,7.04
2022-12-29T18:23:29.568Z,6.98
2022-12-29T18:26:00.442Z,6.97
2022-12-29T18:28:28.534Z,6.94
2022-12-29T18:30:57.772Z,6.94
2022-12-29T18:33:26.678Z,6.89
2022-12-29T18:35:59.801Z,6.87
2022-12-29T18:38:27.715Z,6.84
2022-12-29T18:40:54.696Z,6.75
2022-12-29T18:43:22.567Z,6.77
2022-12-29T18:45:49.918Z,6.83
2022-12-29T18:48:18.786Z,6.88
2022-12-29T18:50:46.657Z,6.82
2022-12-29T18:53:22.217Z,6.80
2022-12-29T18:55:49.166Z,6.81
2022-12-29T18:58:15.937Z,6.79
2022-12-29T19:00:43.066Z,6.71
2022-12-29T19:03:14.661Z,6.70
2022-12-29T19:05:43.118Z,6.73
2022-12-29T19:08:10.994Z,6.77
2022-12-29T19:10:39.557Z,6.74
2022-12-29T19:13:06.447Z,6.72
2022-12-29T19:15:37.808Z,6.71
2022-12-29T19:18:42.512Z,6.68
2022-12-29T19:20:55.044Z,6.70
2022-12-29T19:23:23.784Z,6.73
2022-12-29T19:25:52.358Z,6.72
2022-12-29T19:28:27.097Z,6.76
2022-12-29T19:30:57.397Z,6.79
2022-12-29T19:33:24.532Z,6.77
2022-12-29T19:35:51.909Z,6.80
2022-12-29T19:38:19.573Z,6.77
2022-12-29T19:40:51.218Z,6.75
2022-12-29T19:43:18.835Z,6.80
2022-12-29T19:45:45.912Z,6.82
2022-12-29T19:48:18.097Z,6.79
2022-12-29T19:50:45.713Z,6.80
2022-12-29T19:53:13.415Z,6.83
2022-12-29T19:55:47.099Z,6.83
2022-12-29T19:58:14.737Z,6.83
2022-12-29T20:00:43.488Z,6.85
2022-12-29T20:03:10.733Z,6.83
2022-12-29T20:05:38.455Z,6.83
2022-12-29T20:08:05.354Z,6.83
2022-12-29T20:10:32.007Z,6.83
2022-12-29T20:12:58.665Z,6.83
2022-12-29T20:15:25.467Z,6.82
2022-12-29T20:20:38.773Z,6.76
2022-12-29T20:23:05.483Z,6.76
2022-12-29T20:25:44.914Z,6.79
2022-12-29T20:28:12.934Z,6.82
2022-12-29T20:30:39.658Z,6.80
2022-12-29T20:33:08.528Z,6.79
2022-12-29T20:35:36.565Z,6.77
2022-12-29T20:38:04.142Z,6.76
2022-12-29T20:40:31.596Z,6.72
2022-12-29T20:42:58.224Z,6.77
2022-12-29T20:45:25.189Z,6.79
2022-12-29T20:47:52.014Z,6.72
2022-12-29T20:50:18.616Z,6.72
2022-12-29T20:52:45.329Z,6.70
2022-12-29T20:55:12.051Z,6.72
2022-12-29T20:58:14.138Z,6.69
2022-12-29T21:00:25.864Z,6.67
2022-12-29T21:02:53.017Z,6.65
2022-12-29T21:05:24.451Z,6.63
2022-12-29T21:07:53.367Z,6.56
2022-12-29T21:10:20.776Z,6.56
2022-12-29T21:12:48.461Z,6.53
2022-12-29T21:15:15.714Z,6.54
2022-12-29T21:17:44.060Z,6.52
2022-12-29T21:20:21.562Z,6.54
2022-12-29T21:22:48.484Z,6.51
2022-12-29T21:25:15.552Z,6.47
2022-12-29T21:27:44.074Z,6.47
2022-12-29T21:30:11.504Z,6.45
2022-12-29T21:32:38.289Z,6.43
2022-12-29T21:35:05.365Z,6.35
2022-12-29T21:37:32.082Z,6.41
2022-12-29T21:39:58.718Z,6.42
2022-12-29T21:42:27.593Z,6.41
2022-12-29T21:45:19.902Z,6.42
2022-12-29T21:48:06.181Z,6.36
2022-12-29T21:50:32.848Z,6.35
2022-12-29T21:52:59.543Z,6.28
2022-12-29T21:55:26.240Z,6.34
2022-12-29T21:58:11.556Z,6.32
2022-12-29T22:00:56.830Z,6.23
2022-12-29T22:03:42.286Z,6.26
2022-12-29T22:06:30.674Z,6.16
2022-12-29T22:09:15.943Z,6.20
2022-12-29T22:12:00.848Z,6.17
2022-12-29T22:14:27.541Z,5.98
2022-12-29T22:16:54.175Z,5.48
2022-12-29T22:19:20.910Z,5.48
2022-12-29T22:21:47.617Z,5.34
2022-12-29T22:24:14.319Z,5.24
2022-12-29T22:26:41.077Z,5.16
2022-12-29T22:29:07.895Z,5.16
2022-12-29T22:31:34.844Z,4.77
2022-12-29T22:34:03.130Z,4.66
2022-12-29T22:36:30.878Z,4.45
2022-12-29T22:38:57.543Z,4.23
2022-12-29T22:41:24.221Z,4.56
2022-12-29T22:43:50.960Z,4.37
2022-12-29T22:46:17.829Z,4.37
2022-12-29T22:48:44.591Z,4.74
2022-12-29T22:51:11.354Z,4.38
2022-12-29T22:53:38.100Z,4.12
2022-12-29T22:56:10.618Z,4.08
2022-12-29T22:58:45.736Z,4.15
2022-12-29T23:01:15.902Z,4.52
2022-12-29T23:03:43.852Z,4.68
2022-12-29T23:06:16.306Z,4.66
2022-12-29T23:08:44.064Z,4.50
2022-12-29T23:11:12.533Z,4.45
2022-12-29T23:13:41.014Z,4.44
2022-12-29T23:16:07.988Z,4.32
2022-12-29T23:18:34.844Z,4.49
2022-12-29T23:21:01.799Z,4.61
2022-12-29T23:23:49.398Z,4.68
2022-12-29T23:26:22.987Z,4.79
2022-12-29T23:28:53.534Z,4.80
2022-12-29T23:31:25.800Z,4.77
2022-12-29T23:33:52.848Z,4.85
2022-12-29T23:36:19.691Z,4.66
2022-12-29T23:38:46.337Z,4.73
2022-12-29T23:41:13.257Z,4.76
2022-12-29T23:43:40.140Z,4.85
2022-12-29T23:46:09.241Z,4.71
2022-12-29T23:48:36.624Z,4.74
2022-12-29T23:51:05.511Z,4.67
2022-12-29T23:53:33.615Z,4.62
2022-12-29T23:56:00.581Z,4.66
2022-12-29T23:58:29.974Z,4.72
